createdAt,value
2022-11-12T00:03:40.014Z,2.88
2022-11-12T00:07:02.829Z,4.00
2022-11-12T00:10:25.284Z,3.08
2022-11-12T00:13:48.558Z,3.58
2022-11-12T00:17:11.426Z,2.70
2022-11-12T00:20:33.381Z,2.40
2022-11-12T00:23:55.395Z,2.63
2022-11-12T00:27:17.595Z,2.78
2022-11-12T00:30:42.560Z,2.47
2022-11-12T00:34:04.459Z,2.77
2022-11-12T00:37:26.367Z,2.67
2022-11-12T00:40:48.162Z,2.65
2022-11-12T00:44:10.269Z,2.50
2022-11-12T00:47:33.975Z,3.13
2022-11-12T00:51:02.457Z,2.33
2022-11-12T00:54:24.812Z,2.78
2022-11-12T00:57:46.543Z,2.80
2022-11-12T01:01:11.432Z,2.50
2022-11-12T01:04:34.685Z,2.42
2022-11-12T01:07:56.497Z,2.77
2022-11-12T01:11:21.652Z,2.58
2022-11-12T01:14:43.914Z,2.60
2022-11-12T01:18:06.016Z,3.05
2022-11-12T01:21:33.504Z,2.88
2022-11-12T01:24:55.475Z,3.00
2022-11-12T01:28:17.395Z,2.38
2022-11-12T01:31:40.185Z,2.65
2022-11-12T01:35:02.223Z,2.70
2022-11-12T01:38:25.427Z,2.47
2022-11-12T01:41:47.615Z,2.90
2022-11-12T01:45:16.850Z,2.70
2022-11-12T01:48:47.999Z,2.95
2022-11-12T01:52:18.976Z,2.20
2022-11-12T01:55:43.010Z,2.85
2022-11-12T01:59:13.291Z,2.70
2022-11-12T02:02:37.290Z,2.70
2022-11-12T02:06:06.872Z,2.60
2022-11-12T02:09:30.681Z,2.65
2022-11-12T02:13:13.885Z,2.90
2022-11-12T02:16:41.235Z,2.30
2022-11-12T02:20:03.653Z,3.15
2022-11-12T02:23:27.662Z,2.90
2022-11-12T02:26:55.000Z,2.53
2022-11-12T02:30:16.885Z,2.53
2022-11-12T02:33:38.976Z,2.27
2022-11-12T02:37:01.225Z,2.25
2022-11-12T02:40:24.575Z,2.63
2022-11-12T02:43:48.191Z,2.88
2022-11-12T02:47:10.314Z,2.38
2022-11-12T02:50:32.411Z,2.00
2022-11-12T02:53:54.420Z,2.42
2022-11-12T02:57:18.482Z,2.40
2022-11-12T03:00:40.153Z,2.55
2022-11-12T03:04:02.428Z,2.70
2022-11-12T03:07:24.644Z,2.20
2022-11-12T03:10:47.034Z,2.38
2022-11-12T03:14:10.281Z,2.05
2022-11-12T03:17:32.546Z,2.67
2022-11-12T03:20:54.569Z,2.83
2022-11-12T03:24:16.965Z,2.83
2022-11-12T03:27:38.616Z,2.55
2022-11-12T03:31:02.480Z,2.35
2022-11-12T03:34:24.568Z,2.42
2022-11-12T03:37:46.493Z,2.55
2022-11-12T03:41:08.771Z,3.37
2022-11-12T03:44:30.881Z,2.90
2022-11-12T03:47:57.259Z,3.33
2022-11-12T03:51:21.230Z,2.70
2022-11-12T03:54:43.124Z,2.72
2022-11-12T03:58:05.740Z,3.17
2022-11-12T04:01:27.705Z,2.95
2022-11-12T04:05:09.110Z,2.70
2022-11-12T04:08:36.938Z,2.97
2022-11-12T04:12:19.885Z,2.90
2022-11-12T04:15:41.483Z,2.77
2022-11-12T04:19:23.711Z,2.38
2022-11-12T04:22:46.913Z,2.65
2022-11-12T04:26:23.148Z,2.55
2022-11-12T04:30:18.224Z,2.65
2022-11-12T04:33:40.554Z,2.70
2022-11-12T04:37:03.068Z,2.13
2022-11-12T04:40:46.880Z,2.83
2022-11-12T04:44:26.406Z,2.45
2022-11-12T04:47:48.958Z,2.20
2022-11-12T04:51:24.524Z,2.40
2022-11-12T04:54:46.626Z,2.28
2022-11-12T04:58:09.754Z,2.72
2022-11-12T05:01:32.220Z,2.53
2022-11-12T05:04:54.188Z,3.28
2022-11-12T05:08:16.800Z,2.37
2022-11-12T05:11:38.774Z,2.00
2022-11-12T05:15:02.758Z,2.72
2022-11-12T05:18:24.951Z,2.53
2022-11-12T05:22:33.299Z,1.73
2022-11-12T05:25:55.688Z,2.57
2022-11-12T05:29:18.502Z,2.45
2022-11-12T05:32:41.806Z,2.13
2022-11-12T05:36:04.922Z,2.40
2022-11-12T05:39:27.166Z,2.38
2022-11-12T05:42:49.387Z,2.47
2022-11-12T05:46:11.282Z,2.53
2022-11-12T05:49:35.289Z,2.38
2022-11-12T05:52:56.887Z,2.28
2022-11-12T05:56:19.839Z,2.25
2022-11-12T05:59:41.529Z,2.70
2022-11-12T06:03:04.158Z,2.65
2022-11-12T06:06:27.094Z,2.30
2022-11-12T06:09:49.146Z,2.00
2022-11-12T06:13:10.784Z,2.72
2022-11-12T06:16:34.454Z,2.23
2022-11-12T06:19:56.272Z,2.60
2022-11-12T06:23:19.562Z,2.45
2022-11-12T06:26:41.409Z,2.33
2022-11-12T06:30:03.684Z,2.53
2022-11-12T06:33:25.405Z,2.07
2022-11-12T06:36:48.878Z,1.80
2022-11-12T06:40:12.973Z,2.47
2022-11-12T06:43:37.474Z,2.42
2022-11-12T06:46:59.107Z,2.70
2022-11-12T06:50:21.338Z,2.40
2022-11-12T06:53:43.725Z,2.08
2022-11-12T06:57:07.477Z,3.15
2022-11-12T07:00:29.526Z,2.53
2022-11-12T07:03:54.428Z,3.10
2022-11-12T07:07:16.190Z,2.37
2022-11-12T07:10:38.383Z,2.67
2022-11-12T07:14:01.662Z,2.28
2022-11-12T07:17:24.340Z,3.17
2022-11-12T07:20:46.316Z,2.55
2022-11-12T07:24:09.626Z,2.87
2022-11-12T07:27:32.351Z,2.53
2022-11-12T07:31:05.873Z,2.60
2022-11-12T07:34:27.840Z,2.70
2022-11-12T07:37:49.908Z,2.75
2022-11-12T07:41:14.661Z,2.70
2022-11-12T07:44:37.068Z,2.35
2022-11-12T07:48:01.374Z,2.38
2022-11-12T07:51:26.463Z,3.00
2022-11-12T07:54:48.224Z,2.10
2022-11-12T07:58:10.655Z,3.33
2022-11-12T08:01:35.657Z,2.55
2022-11-12T08:04:59.811Z,2.78
2022-11-12T08:08:21.986Z,3.20
2022-11-12T08:11:44.381Z,2.53
2022-11-12T08:15:07.206Z,2.60
2022-11-12T08:18:31.486Z,2.67
2022-11-12T08:21:54.784Z,2.50
2022-11-12T08:25:18.966Z,2.42
2022-11-12T08:28:41.391Z,2.40
2022-11-12T08:32:03.313Z,2.20
2022-11-12T08:35:25.995Z,2.50
2022-11-12T08:38:53.352Z,2.17
2022-11-12T08:42:15.431Z,2.45
2022-11-12T08:45:41.067Z,2.58
2022-11-12T08:49:03.458Z,2.10
2022-11-12T08:52:25.647Z,2.17
2022-11-12T08:55:49.347Z,1.80
2022-11-12T08:59:11.508Z,2.45
2022-11-12T09:02:33.125Z,2.20
2022-11-12T09:05:55.321Z,2.17
2022-11-12T09:09:16.923Z,2.60
2022-11-12T09:12:40.261Z,2.33
2022-11-12T09:16:05.313Z,2.08
2022-11-12T09:19:27.383Z,2.70
2022-11-12T09:22:49.309Z,2.80
2022-11-12T09:26:11.472Z,2.08
2022-11-12T09:29:34.738Z,2.00
2022-11-12T09:32:59.758Z,2.55
2022-11-12T09:36:21.394Z,2.30
2022-11-12T09:39:43.829Z,2.50
2022-11-12T09:43:20.067Z,2.28
2022-11-12T09:46:50.042Z,2.90
2022-11-12T09:50:22.760Z,2.25
2022-11-12T09:53:56.058Z,2.28
2022-11-12T09:57:17.708Z,2.10
2022-11-12T10:00:46.549Z,2.10
2022-11-12T10:04:35.672Z,2.55
2022-11-12T10:08:21.251Z,2.42
2022-11-12T10:12:21.836Z,2.17
2022-11-12T10:16:16.983Z,2.43
2022-11-12T10:20:07.482Z,2.33
2022-11-12T10:23:38.141Z,2.13
2022-11-12T10:27:00.767Z,2.13
2022-11-12T10:30:25.814Z,1.98
2022-11-12T10:33:48.073Z,1.80
2022-11-12T10:37:21.902Z,2.15
2022-11-12T10:40:44.032Z,2.63
2022-11-12T10:44:08.317Z,1.75
2022-11-12T10:47:34.318Z,1.73
2022-11-12T10:50:57.010Z,2.20
2022-11-12T10:54:36.129Z,2.47
2022-11-12T10:58:19.544Z,2.72
2022-11-12T11:01:45.483Z,1.88
2022-11-12T11:05:38.838Z,1.73
2022-11-12T11:09:19.763Z,2.20
2022-11-12T11:12:43.546Z,2.30
2022-11-12T11:16:08.862Z,1.85
2022-11-12T11:19:39.847Z,1.75
2022-11-12T11:23:08.073Z,1.70
2022-11-12T11:26:43.789Z,1.93
2022-11-12T11:30:15.896Z,1.83
2022-11-12T11:33:50.886Z,1.27
2022-11-12T11:37:27.360Z,2.03
2022-11-12T11:41:00.715Z,2.22
2022-11-12T11:44:39.861Z,1.90
2022-11-12T11:48:22.026Z,2.22
2022-11-12T11:51:58.181Z,2.00
2022-11-12T11:55:34.934Z,1.80
2022-11-12T11:59:21.874Z,1.73
2022-11-12T12:03:14.893Z,1.90
2022-11-12T12:06:45.682Z,2.03
2022-11-12T12:10:46.173Z,1.52
2022-11-12T12:14:30.804Z,2.05
2022-11-12T12:18:08.683Z,1.30
2022-11-12T12:21:38.849Z,1.67
2022-11-12T12:25:14.059Z,2.15
2022-11-12T12:28:43.452Z,1.20
2022-11-12T12:32:15.759Z,1.73
2022-11-12T12:35:53.691Z,2.05
2022-11-12T12:39:19.822Z,2.10
2022-11-12T12:42:53.598Z,1.88
2022-11-12T12:46:22.360Z,1.50
2022-11-12T12:49:47.970Z,1.55
2022-11-12T12:53:32.941Z,1.80
2022-11-12T12:56:55.245Z,1.60
2022-11-12T13:00:36.241Z,1.20
2022-11-12T13:04:02.298Z,1.60
2022-11-12T13:07:45.821Z,1.75
2022-11-12T13:11:09.825Z,1.58
2022-11-12T13:15:39.774Z,1.47
2022-11-12T13:19:03.096Z,1.60
2022-11-12T13:22:51.868Z,1.20
2022-11-12T13:26:54.026Z,1.67
2022-11-12T13:31:04.657Z,1.63
2022-11-12T13:34:34.585Z,1.40
2022-11-12T13:38:01.978Z,1.70
2022-11-12T13:41:40.688Z,1.77
2022-11-12T13:45:06.829Z,1.48
2022-11-12T13:48:35.374Z,1.38
2022-11-12T13:52:00.742Z,1.40
2022-11-12T13:55:24.420Z,1.88
2022-11-12T13:58:46.590Z,1.85
2022-11-12T14:02:23.751Z,1.83
2022-11-12T14:05:50.418Z,1.38
2022-11-12T14:09:42.526Z,1.57
2022-11-12T14:13:37.519Z,1.20
2022-11-12T14:17:22.391Z,1.50
2022-11-12T14:20:46.218Z,1.15
2022-11-12T14:24:13.875Z,1.38
2022-11-12T14:27:37.277Z,1.27
2022-11-12T14:31:02.215Z,1.27
2022-11-12T14:34:30.758Z,1.27
2022-11-12T14:37:58.094Z,1.55
2022-11-12T14:41:25.577Z,1.77
2022-11-12T14:44:47.803Z,4.33
2022-11-12T14:48:10.958Z,2.45
2022-11-12T14:51:48.052Z,2.40
2022-11-12T14:55:16.170Z,2.15
2022-11-12T14:58:41.069Z,2.58
2022-11-12T15:06:11.796Z,3.05
2022-11-12T15:09:39.197Z,2.10
2022-11-12T15:13:07.896Z,2.00
2022-11-12T15:16:34.404Z,2.47
2022-11-12T15:20:04.288Z,2.00
2022-11-12T15:23:26.754Z,2.03
2022-11-12T15:26:51.679Z,2.03
2022-11-12T15:30:23.649Z,1.88
2022-11-12T15:33:45.856Z,1.90
2022-11-12T15:37:12.357Z,1.97
2022-11-12T15:40:44.827Z,2.20
2022-11-12T15:44:10.569Z,1.48
2022-11-12T15:47:32.367Z,1.90
2022-11-12T15:50:56.039Z,2.30
2022-11-12T15:54:17.986Z,1.83
2022-11-12T15:57:44.904Z,1.63
2022-11-12T16:01:08.448Z,1.60
2022-11-12T16:04:30.887Z,1.90
2022-11-12T16:07:52.870Z,1.77
2022-11-12T16:11:29.087Z,1.73
2022-11-12T16:14:51.175Z,1.02
2022-11-12T16:18:14.851Z,1.92
2022-11-12T16:21:36.934Z,1.55
2022-11-12T16:24:59.262Z,1.75
2022-11-12T16:28:21.156Z,1.63
2022-11-12T16:31:44.982Z,1.70
2022-11-12T16:35:09.614Z,1.52
2022-11-12T16:38:31.923Z,1.63
2022-11-12T16:41:53.801Z,1.85
2022-11-12T16:45:18.194Z,1.63
2022-11-12T16:48:40.092Z,1.63
2022-11-12T16:52:03.897Z,2.00
2022-11-12T16:55:25.735Z,1.40
2022-11-12T16:58:49.252Z,2.05
2022-11-12T17:02:16.397Z,1.37
2022-11-12T17:05:38.691Z,1.30
2022-11-12T17:09:02.163Z,1.90
2022-11-12T17:12:24.438Z,1.60
2022-11-12T17:15:47.029Z,1.80
2022-11-12T17:19:11.556Z,2.40
2022-11-12T17:22:33.249Z,1.55
2022-11-12T17:26:02.919Z,1.73
2022-11-12T17:29:24.812Z,1.60
2022-11-12T17:32:48.129Z,1.70
2022-11-12T17:36:13.281Z,1.50
2022-11-12T17:39:35.316Z,2.13
2022-11-12T17:42:58.264Z,2.20
2022-11-12T17:46:20.872Z,1.45
2022-11-12T17:49:42.757Z,1.42
2022-11-12T17:53:05.058Z,1.73
2022-11-12T17:56:27.091Z,1.52
2022-11-12T17:59:50.741Z,1.98
2022-11-12T18:03:12.652Z,1.83
2022-11-12T18:06:36.389Z,2.15
2022-11-12T18:09:58.305Z,1.67
2022-11-12T18:13:21.105Z,1.27
2022-11-12T18:16:45.401Z,1.95
2022-11-12T18:20:09.923Z,1.98
2022-11-12T18:23:31.794Z,1.70
2022-11-12T18:26:54.004Z,1.30
2022-11-12T18:30:19.301Z,1.83
2022-11-12T18:33:43.528Z,2.20
2022-11-12T18:37:05.729Z,1.95
2022-11-12T18:40:28.232Z,2.28
2022-11-12T18:43:49.985Z,2.10
2022-11-12T18:47:12.152Z,1.75
2022-11-12T18:50:35.458Z,1.92
2022-11-12T18:53:58.414Z,2.05
2022-11-12T18:57:20.621Z,1.67
2022-11-12T19:00:46.371Z,1.40
2022-11-12T19:04:11.952Z,2.08
2022-11-12T19:07:35.688Z,1.73
2022-11-12T19:11:01.214Z,1.52
2022-11-12T19:14:26.982Z,2.08
2022-11-12T19:17:49.280Z,2.40
2022-11-12T19:21:15.368Z,2.00
2022-11-12T19:24:38.487Z,2.00
2022-11-12T19:28:00.784Z,2.17
2022-11-12T19:31:26.008Z,2.15
2022-11-12T19:34:47.957Z,2.03
2022-11-12T19:38:10.411Z,2.38
2022-11-12T19:41:34.095Z,1.92
2022-11-12T19:44:56.080Z,2.45
2022-11-12T19:48:18.243Z,1.80
2022-11-12T19:51:40.419Z,1.87
2022-11-12T19:55:03.062Z,1.83
2022-11-12T19:58:26.378Z,2.05
2022-11-12T20:01:50.081Z,1.77
2022-11-12T20:05:11.974Z,2.13
2022-11-12T20:08:34.655Z,1.70
2022-11-12T20:11:56.550Z,2.28
2022-11-12T20:15:20.140Z,2.95
2022-11-12T20:18:42.162Z,2.45
2022-11-12T20:22:04.619Z,2.35
2022-11-12T20:25:26.544Z,2.17
2022-11-12T20:28:48.901Z,3.08
2022-11-12T20:32:11.948Z,1.73
2022-11-12T20:35:36.828Z,1.70
2022-11-12T20:39:00.135Z,1.45
2022-11-12T20:42:22.261Z,2.33
2022-11-12T20:45:44.159Z,1.70
2022-11-12T20:49:08.799Z,2.15
2022-11-12T20:52:31.505Z,2.42
2022-11-12T20:55:53.696Z,2.03
2022-11-12T20:59:15.827Z,1.97
2022-11-12T21:02:38.295Z,1.77
2022-11-12T21:06:04.344Z,2.38
2022-11-12T21:09:26.971Z,1.95
2022-11-12T21:12:50.785Z,2.00
2022-11-12T21:16:15.553Z,1.50
2022-11-12T21:19:37.848Z,1.98
2022-11-12T21:23:08.295Z,1.50
2022-11-12T21:26:30.638Z,1.30
2022-11-12T21:29:56.263Z,1.10
2022-11-12T21:33:22.596Z,1.83
2022-11-12T21:36:44.971Z,1.73
2022-11-12T21:40:10.477Z,1.90
2022-11-12T21:43:33.121Z,1.80
2022-11-12T21:46:55.009Z,2.20
2022-11-12T21:50:18.287Z,2.00
2022-11-12T21:53:41.271Z,1.77
2022-11-12T21:57:07.659Z,1.85
2022-11-12T22:00:44.794Z,2.35
2022-11-12T22:04:10.925Z,2.10
2022-11-12T22:07:36.297Z,2.00
2022-11-12T22:11:04.014Z,2.47
2022-11-12T22:14:27.994Z,1.95
2022-11-12T22:17:50.120Z,2.15
2022-11-12T22:21:15.883Z,2.15
2022-11-12T22:24:38.362Z,1.93
2022-11-12T22:28:00.138Z,2.50
2022-11-12T22:31:27.127Z,2.67
2022-11-12T22:34:49.630Z,2.05
2022-11-12T22:38:12.307Z,1.90
2022-11-12T22:41:34.070Z,2.30
2022-11-12T22:44:56.129Z,2.10
2022-11-12T22:48:19.324Z,2.15
2022-11-12T22:51:42.641Z,2.58
2022-11-12T22:55:04.918Z,1.80
2022-11-12T22:58:27.177Z,2.50
2022-11-12T23:01:49.263Z,2.80
2022-11-12T23:05:12.461Z,2.65
2022-11-12T23:08:36.087Z,2.67
2022-11-12T23:11:58.224Z,2.63
2022-11-12T23:15:20.219Z,3.20
2022-11-12T23:18:42.676Z,2.05
2022-11-12T23:22:08.120Z,2.20
2022-11-12T23:25:30.579Z,2.53
2022-11-12T23:28:53.605Z,2.60
2022-11-12T23:32:15.362Z,1.87
2022-11-12T23:35:37.489Z,2.00
2022-11-12T23:39:01.232Z,2.20
2022-11-12T23:42:22.938Z,2.05
2022-11-12T23:45:44.786Z,2.60
2022-11-12T23:49:06.802Z,2.10
2022-11-12T23:52:28.789Z,1.95
2022-11-12T23:55:52.728Z,2.40
2022-11-12T23:59:14.728Z,2.67
